AirNav   Air Wisconsin pilot careers
 
 375 users online  

KRYW Lago Vista TX - Rusty Allen Airport
Lago Vista, Texas, USA

GOING TO LAGO VISTA?


FAA INFORMATION EFFECTIVE 01 FEBRUARY 2018

Location

FAA Identifier: RYW
Lat/Long: 30-29-54.9000N / 097-58-10.1000W
30-29.915000N / 097-58.168333W
30.4985833 / -97.9694722
(estimated)
Elevation: 1230.4 ft. / 375.0 m (surveyed)
Variation: 04E (2020)
From city: 2 miles NE of LAGO VISTA, TX
Time zone: UTC -6 (UTC -5 during Daylight Saving Time)
Zip code: 78645

Airport Operations

Airport use: Open to the public
Activation date: 09/1973
Control tower: no
ARTCC: HOUSTON CENTER
FSS: SAN ANGELO FLIGHT SERVICE STATION
NOTAMs facility: RYW (NOTAM-D service available)
Attendance: 0800-1800
Wind indicator: lighted
Segmented circle: no
Lights: DUSK-DAWN. MIRL RY 15/33 PRESET LOW INTST; TO INCR INTST ACTVT - CTAF. PAPI RYS 15 & 33 OPER CONT.
Beacon: white-green (lighted land airport)
Operates sunset to sunrise.

Airport Communications

CTAF/UNICOM: 122.725
WX ASOS: 119.375 (512-267-1365)
AUSTIN APPROACH: 119.0 [1300-0500Z++ MON-THU; 1300-2200Z++ FRI; CLSD SAT, SUN AND HOL BY NOTAM. HRS SUBJECT TO CHG IN SUPPORT OF TRAWING-2 FLT OPR]
AUSTIN DEPARTURE: 119.0 [1300-0500Z++ MON-THU; 1300-2200Z++ FRI; CLSD SAT, SUN AND HOL BY NOTAM. HRS SUBJECT TO CHG IN SUPPORT OF TRAWING-2 FLT OPR]
AEROZ DP: 119.0
BNDIA DP: 119.0
ELOEL DP: 119.0
ILEXY DP: 119.0
MSTLO STAR: 127.225
MUCKY DP: 119.0
POTTR STAR: 127.225
SAYBR DP: 119.0
WX AWOS-3PT at GTU (18 nm NE): PHONE 512-869-3430

Nearby radio navigation aids

VOR radial/distance  VOR name  Freq  Var
CWKr282/23.9CENTEX VORTAC112.8006E
GRKr187/33.0GRAY VOR/DME111.8007E

Airport Services

Fuel available: 100LL
Parking: tiedowns

Runway Information

Runway 15/33

Dimensions: 3808 x 50 ft. / 1161 x 15 m
Surface: asphalt, in excellent condition
Weight bearing capacity: 
Single wheel: 12.5, GWT PER ARPT MGR.
Runway edge lights: medium intensity
RUNWAY 15  RUNWAY 33
Latitude: 30-30.212715N30-29.617755N
Longitude: 097-58.283938W097-58.051307W
Elevation: 1230.4 ft.1209.3 ft.
Traffic pattern: leftleft
Runway heading: 157 magnetic, 161 true337 magnetic, 341 true
Declared distances: TORA:3808 TODA:3808 ASDA:3808 LDA:3808TORA:3808 TODA:3808 ASDA:3808 LDA:3808
Markings: nonprecision, in good conditionnonprecision, in good condition
Visual slope indicator: 2-light PAPI on left (4.00 degrees glide path)2-light PAPI on left (3.50 degrees glide path)
Touchdown point: yes, no lightsyes, no lights
Obstructions: 20 ft. trees, 200 ft. from runway, 125 ft. both sides of centerline
+20 FT TREES 0-200 FT FM RY END 125 FT L & R.
10 ft. pline, marked, 200 ft. from runway, 234 ft. left of centerline
+14 FT HANGARS AT THLD TO 104 FT FM THLD - 159 FT L & +15 FT HANGAR 223 FT R FM 127 FT TO 187 FT FM THLD.

Airport Ownership and Management from official FAA records

Ownership: Publicly-owned
Owner: CITY OF LAGO VISTA
5803 THUNDERBIRD DR
LAGO VISTA, TX 78645
Phone 512-267-1155
Manager: DAVID HARRELL
P.O. BOX 4727
LAGO VISTA, TX 78645
Phone (512) 527-3540

Airport Operational Statistics

Aircraft based on the field: 84
Single engine airplanes: 67
Multi engine airplanes: 9
Jet airplanes: 3
Helicopters: 3
Ultralights: 2
    
Aircraft operations: avg 104/day *
75% local general aviation
25% transient general aviation
* for 12-month period ending 06 October 2016

Additional Remarks

DEER (SEASONAL) ON & INVOF RYS AND TWYS.
UNICOM NOT MONITORED.
FOR CD CTC AUS APCH AT 512-369-7865.

Instrument Procedures

NOTE: All procedures below are presented as PDF files. If you need a reader for these files, you should download the free Adobe Reader.

NOT FOR NAVIGATION. Please procure official charts for flight.
FAA instrument procedures published for use between 1 February 2018 at 0901Z and 1 March 2018 at 0900Z.

 
STARs - Standard Terminal Arrivals
BITER SEVEN   download (282KB)
BLEWE FOUR   download (173KB)
MSTLO TWO (RNAV)   download (108KB)
POTRR ONE (RNAV)   download (142KB)
 
IAPs - Instrument Approach Procedures
RNAV (GPS) RWY 15   download (238KB)
 
Departure Procedures
AEROZ ONE (RNAV)   download (135KB)
BNDIA TWO (RNAV)   download (117KB)
ELOEL TWO (RNAV)   download (141KB)
ILEXY TWO (RNAV)   download (153KB)
MUCKY TWO (RNAV)   download (115KB)
SAYBR TWO (RNAV)   download (124KB)
NOTE: Special Take-Off Minimums/Departure Procedures apply   download (504KB)

Other nearby airports with instrument procedures:

3R9 - Lakeway Airpark (9 nm S)
KGTU - Georgetown Municipal Airport (18 nm NE)
KBMQ - Burnet Municipal Airport-Kate Craddock Field (20 nm NW)
KEDC - Austin Executive Airport (22 nm E)
KAUS - Austin-Bergstrom International Airport (24 nm SE)
 
Loc | Ops | Rwys | IFR | FBO | Links
Com | Nav | Svcs | Stats | Notes

AirNav Hotels Sweepstakes
 
Area around KRYW (Lago Vista TX - Rusty Allen Airport)
 
Road maps at: MapQuest Bing Google
 
Aerial photo
WARNING: Photo may not be current or correct
Aerial photo of KRYW (Lago Vista TX - Rusty Allen Airport)
Photo by Mike Mee
Taken in March 2016
looking southeast.

Do you have a better or more recent aerial photo of Lago Vista TX - Rusty Allen Airport that you would like to share? If so, please send us your photo.

 
Sectional chart

 
Airport distance calculator
Flying to Lago Vista TX - Rusty Allen Airport? Find the distance to fly.

From to KRYW

Sunrise and sunset
Times for 24-Feb-2018
 Local
(UTC-6)
 Zulu
(UTC)
Morning civil twilight06:4012:40
Sunrise07:0513:05
Sunset18:2600:26
Evening civil twilight18:5000:50

Current date and time
Zulu (UTC)  24-Feb-2018 10:37:39
Local (UTC-6)  24-Feb-2018 04:37:39
 
METAR
KRYW 241015Z AUTO 17008G15KT 130V200 1 1/4SM -RA OVC001 20/20 A2990 RMK AO2 T01950195
KATT 
18nm SE 
241007Z AUTO 16006KT 6SM -RA BR BKN010 OVC013 20/19 A2991 RMK AO2 RAB0955 CIG 005V011 P0000 T02000189
KGTU 
19nm NE 
240956Z AUTO 16006KT 3SM BR OVC003 19/18 A2992 RMK AO2 SLP132 T01890183
KAUS 
19nm SE 
240953Z 18010KT 7SM OVC010 21/21 A2991 RMK AO2 DZE38RAB38E44 SLP123 P0001 T02060206
KBMQ 
20nm NW 
240953Z AUTO 16006KT 6SM -RA BR OVC006 19/18 A2991 RMK AO2 LTG DSNT NW RAB52 SLP118 P0000 T01890183
TAF
KAUS 
19nm SE 
240903Z 2409/2512 16007KT 6SM -DZ BR BKN009 BKN015 FM241100 16004KT 2SM BR VCSH OVC003 FM241900 21012KT P6SM OVC006 FM242200 24006KT P6SM BKN200
NOTAMs
Click for the latest NOTAMs
NOTAMs are issued by the DoD/FAA and will open in a separate window not controlled by AirNav.

 

 
 

FBO, Fuel Providers, and Aircraft Ground Support

  
 Business Name 
 
 Contact 
 
 Services / Description 
 
Fuel Prices
 
Comments
  
Lago Vista Airport 512-267-5259
[web site]
[email]
Aviation fuel, Aircraft parking (ramp or tiedown), Hangars, Hangar leasing / sales, Flight training, Aircraft maintenance, Courtesy transportation

More info about Lago Vista Airport
independent
100LL
SS $3.92 
 Updated 19-Feb-2018
 
   1 read write
SS=Self service
Update Fuel Prices
 

Would you like to see your business listed on this page?

 If your business provides an interesting product or service to pilots, flight crews, aircraft, or users of the Lago Vista TX - Rusty Allen Airport, you should consider listing it here.  To start the listing process, click on the button below
 
Add a business
 

Other Pages about Lago Vista TX - Rusty Allen Airport

www.raapoa.com
 
Update a link
 
Copyright © AirNav, LLC. All rights reserved. Privacy Policy  Contact